createdAt,value
2019-03-04T00:00:57.774Z,0.00
2019-03-04T00:01:57.797Z,0.00
2019-03-04T00:02:57.820Z,0.00
2019-03-04T00:03:57.837Z,0.00
2019-03-04T00:04:57.876Z,0.00
2019-03-04T00:05:57.895Z,0.00
2019-03-04T00:06:57.917Z,0.00
2019-03-04T00:07:57.929Z,0.00
2019-03-04T00:08:57.964Z,0.00
2019-03-04T00:09:57.979Z,0.00
2019-03-04T00:10:58.003Z,0.00
2019-03-04T00:11:58.028Z,0.00
2019-03-04T00:12:58.047Z,0.00
2019-03-04T00:13:58.069Z,0.00
2019-03-04T00:14:58.091Z,0.00
2019-03-04T00:15:58.127Z,0.00
2019-03-04T00:16:58.177Z,0.00
2019-03-04T00:17:58.166Z,0.00
2019-03-04T00:18:58.188Z,0.00
2019-03-04T00:19:58.253Z,0.00
2019-03-04T00:20:58.229Z,0.00
2019-03-04T00:21:58.262Z,0.00
2019-03-04T00:22:58.273Z,0.00
2019-03-04T00:23:58.294Z,0.00
2019-03-04T00:24:58.375Z,0.00
2019-03-04T00:25:58.356Z,0.00
2019-03-04T00:26:58.366Z,0.00
2019-03-04T00:27:58.402Z,0.00
2019-03-04T00:28:58.414Z,0.00
2019-03-04T00:29:58.438Z,0.00
2019-03-04T00:30:58.463Z,0.00
2019-03-04T00:31:58.482Z,0.00
2019-03-04T00:32:58.506Z,0.00
2019-03-04T00:33:58.528Z,0.00
2019-03-04T00:34:58.552Z,0.00
2019-03-04T00:35:58.577Z,0.00
2019-03-04T00:36:58.629Z,0.00
2019-03-04T00:37:59.321Z,0.00
2019-03-04T00:38:58.654Z,0.00
2019-03-04T00:39:58.668Z,0.00
2019-03-04T00:40:58.690Z,0.00
2019-03-04T00:41:58.720Z,0.00
2019-03-04T00:42:58.737Z,0.00
2019-03-04T00:43:58.761Z,0.00
2019-03-04T00:44:58.777Z,0.00
2019-03-04T00:45:58.815Z,0.00
2019-03-04T00:46:58.823Z,0.00
2019-03-04T00:47:58.864Z,0.00
2019-03-04T00:48:58.917Z,0.00
2019-03-04T00:49:58.894Z,0.00
2019-03-04T00:50:58.918Z,0.00
2019-03-04T00:51:58.936Z,0.00
2019-03-04T00:52:58.961Z,0.00
2019-03-04T00:53:58.990Z,0.00
2019-03-04T00:54:59.009Z,0.00
2019-03-04T00:55:59.029Z,0.00
2019-03-04T00:56:59.057Z,0.00
2019-03-04T00:57:59.105Z,0.00
2019-03-04T00:58:59.104Z,0.00
2019-03-04T00:59:59.118Z,0.00
2019-03-04T01:00:59.143Z,0.00
2019-03-04T01:01:59.171Z,0.00
2019-03-04T01:02:59.200Z,0.00
2019-03-04T01:03:59.215Z,0.00
2019-03-04T01:04:59.241Z,0.00
2019-03-04T01:05:59.253Z,0.00
2019-03-04T01:06:59.281Z,0.00
2019-03-04T01:07:59.310Z,0.00
2019-03-04T01:08:59.324Z,0.00
2019-03-04T01:09:59.349Z,0.00
2019-03-04T01:10:59.393Z,0.00
2019-03-04T01:11:59.401Z,0.00
2019-03-04T01:12:59.419Z,0.00
2019-03-04T01:13:59.463Z,0.00
2019-03-04T01:14:59.498Z,0.00
2019-03-04T01:15:59.487Z,0.00
2019-03-04T01:16:59.515Z,0.00
2019-03-04T01:17:59.532Z,0.00
2019-03-04T01:18:59.560Z,0.00
2019-03-04T01:19:59.575Z,0.00
2019-03-04T01:20:59.601Z,0.00
2019-03-04T01:21:59.624Z,0.00
2019-03-04T01:22:59.642Z,0.00
2019-03-04T01:23:59.668Z,0.00
2019-03-04T01:24:59.694Z,0.00
2019-03-04T01:25:59.713Z,0.00
2019-03-04T01:26:59.753Z,0.00
2019-03-04T01:27:59.784Z,0.00
2019-03-04T01:28:59.781Z,0.00
2019-03-04T01:29:59.814Z,0.00
2019-03-04T01:30:59.832Z,0.00
2019-03-04T01:31:59.849Z,0.00
2019-03-04T01:32:59.870Z,0.00
2019-03-04T01:33:59.898Z,0.00
2019-03-04T01:34:59.918Z,0.00
2019-03-04T01:35:59.940Z,0.00
2019-03-04T01:36:59.971Z,0.00
2019-03-04T01:37:59.982Z,0.00
2019-03-04T01:39:00.019Z,0.00
2019-03-04T01:40:00.035Z,0.00
2019-03-04T01:41:00.057Z,0.00
2019-03-04T01:42:00.091Z,0.00
2019-03-04T01:43:00.117Z,0.00
2019-03-04T01:44:00.135Z,0.00
2019-03-04T01:45:00.319Z,0.00
2019-03-04T01:46:00.167Z,0.00
2019-03-04T01:47:00.192Z,0.00
2019-03-04T01:48:00.223Z,0.00
2019-03-04T01:49:00.259Z,0.00
2019-03-04T01:50:00.334Z,0.00
2019-03-04T01:51:00.280Z,0.00
2019-03-04T01:52:00.333Z,0.00
2019-03-04T01:53:00.332Z,0.00
2019-03-04T01:54:00.357Z,0.00
2019-03-04T01:55:00.370Z,0.00
2019-03-04T01:56:00.394Z,0.00
2019-03-04T01:57:00.437Z,0.00
2019-03-04T01:58:00.452Z,0.00
2019-03-04T01:59:00.475Z,0.00
2019-03-04T02:00:00.498Z,0.00
2019-03-04T02:01:00.518Z,0.00
2019-03-04T02:02:00.539Z,0.00
2019-03-04T02:03:00.566Z,0.00
2019-03-04T02:04:00.582Z,0.00
2019-03-04T02:05:00.599Z,0.00
2019-03-04T02:06:00.638Z,0.00
2019-03-04T02:07:00.665Z,0.00
2019-03-04T02:08:00.679Z,0.00
2019-03-04T02:09:00.699Z,0.00
2019-03-04T02:10:00.717Z,0.00
2019-03-04T02:11:00.745Z,0.00
2019-03-04T02:12:00.761Z,0.00
2019-03-04T02:13:00.786Z,0.00
2019-03-04T02:14:00.807Z,0.00
2019-03-04T02:15:00.834Z,0.00
2019-03-04T02:16:00.856Z,0.00
2019-03-04T02:17:00.874Z,0.00
2019-03-04T02:18:00.906Z,0.00
2019-03-04T02:19:00.931Z,0.00
2019-03-04T02:20:00.942Z,0.00
2019-03-04T02:21:00.970Z,0.00
2019-03-04T02:22:00.998Z,0.00
2019-03-04T02:23:01.012Z,0.00
2019-03-04T02:24:01.046Z,0.00
2019-03-04T02:25:01.070Z,0.00
2019-03-04T02:26:01.081Z,0.00
2019-03-04T02:27:01.120Z,0.00
2019-03-04T02:28:01.136Z,0.00
2019-03-04T02:29:01.151Z,0.00
2019-03-04T02:30:01.171Z,0.00
2019-03-04T02:31:01.195Z,0.00
2019-03-04T02:32:01.219Z,0.00
2019-03-04T02:33:01.249Z,0.00
2019-03-04T02:34:01.265Z,0.00
2019-03-04T02:35:01.287Z,0.00
2019-03-04T02:36:01.314Z,0.00
2019-03-04T02:37:01.365Z,0.00
2019-03-04T02:38:01.364Z,0.00
2019-03-04T02:39:01.376Z,0.00
2019-03-04T02:40:01.400Z,0.00
2019-03-04T02:41:01.437Z,0.00
2019-03-04T02:42:01.444Z,0.00
2019-03-04T02:43:01.473Z,0.00
2019-03-04T02:44:01.499Z,0.00
2019-03-04T02:45:01.514Z,0.00
2019-03-04T02:46:01.540Z,0.00
2019-03-04T02:47:01.566Z,0.00
2019-03-04T02:48:01.589Z,0.00
2019-03-04T02:49:01.614Z,0.00
2019-03-04T02:50:01.662Z,0.00
2019-03-04T02:51:01.653Z,0.00
2019-03-04T02:52:01.673Z,0.00
2019-03-04T02:53:01.696Z,0.00
2019-03-04T02:54:01.715Z,0.00
2019-03-04T02:55:01.753Z,0.00
2019-03-04T02:56:01.767Z,0.00
2019-03-04T02:57:01.803Z,0.00
2019-03-04T02:58:01.808Z,0.00
2019-03-04T02:59:01.828Z,0.00
2019-03-04T03:00:01.870Z,0.00
2019-03-04T03:01:01.888Z,0.00
2019-03-04T03:02:01.901Z,0.00
2019-03-04T03:03:01.925Z,0.00
2019-03-04T03:04:01.952Z,0.00
2019-03-04T03:05:01.978Z,0.00
2019-03-04T03:06:01.985Z,0.00
2019-03-04T03:07:02.020Z,0.00
2019-03-04T03:08:02.039Z,0.00
2019-03-04T03:09:02.068Z,0.00
2019-03-04T03:10:02.081Z,0.00
2019-03-04T03:11:02.107Z,0.00
2019-03-04T03:12:02.124Z,0.00
2019-03-04T03:13:02.152Z,0.00
2019-03-04T03:14:02.175Z,0.00
2019-03-04T03:15:02.193Z,0.00
2019-03-04T03:16:02.217Z,0.00
2019-03-04T03:17:02.247Z,0.00
2019-03-04T03:18:02.265Z,0.00
2019-03-04T03:19:02.284Z,0.00
2019-03-04T03:20:02.324Z,0.00
2019-03-04T03:21:02.331Z,0.00
2019-03-04T03:22:02.350Z,0.00
2019-03-04T03:23:02.377Z,0.00
2019-03-04T03:24:02.421Z,0.00
2019-03-04T03:25:02.418Z,0.00
2019-03-04T03:26:02.443Z,0.00
2019-03-04T03:27:02.477Z,0.00
2019-03-04T03:28:02.481Z,0.00
2019-03-04T03:29:02.516Z,0.00
2019-03-04T03:30:02.540Z,0.00
2019-03-04T03:31:02.569Z,0.00
2019-03-04T03:32:02.605Z,0.00
2019-03-04T03:33:02.692Z,0.00
2019-03-04T03:34:02.634Z,0.00
2019-03-04T03:35:07.439Z,0.00
2019-03-04T03:36:02.684Z,0.00
2019-03-04T03:37:02.695Z,0.00
2019-03-04T03:38:02.789Z,0.00
2019-03-04T03:39:02.742Z,0.00
2019-03-04T03:40:02.774Z,0.00
2019-03-04T03:41:02.836Z,0.00
2019-03-04T03:42:02.821Z,0.00
2019-03-04T03:43:02.827Z,0.00
2019-03-04T03:44:02.857Z,0.00
2019-03-04T03:45:02.878Z,0.00
2019-03-04T03:46:02.896Z,0.00
2019-03-04T03:47:02.918Z,0.00
2019-03-04T03:48:02.955Z,0.00
2019-03-04T03:49:02.975Z,0.00
2019-03-04T03:50:02.985Z,0.00
2019-03-04T03:51:03.009Z,0.00
2019-03-04T03:52:03.041Z,0.00
2019-03-04T03:53:03.059Z,0.00
2019-03-04T03:54:03.083Z,0.00
2019-03-04T03:55:03.105Z,0.00
2019-03-04T03:56:03.121Z,0.00
2019-03-04T03:57:03.148Z,0.00
2019-03-04T03:58:03.169Z,0.00
2019-03-04T03:59:03.192Z,0.00
2019-03-04T04:00:03.211Z,0.00
2019-03-04T04:01:03.241Z,0.00
2019-03-04T04:02:03.263Z,0.00
2019-03-04T04:03:03.279Z,0.00
2019-03-04T04:04:03.301Z,0.00
2019-03-04T04:05:03.325Z,0.00
2019-03-04T04:06:03.353Z,0.00
2019-03-04T04:07:03.378Z,0.00
2019-03-04T04:08:03.398Z,0.00
2019-03-04T04:09:03.417Z,0.00
2019-03-04T04:10:03.433Z,0.00
2019-03-04T04:11:03.457Z,0.00
2019-03-04T04:12:03.484Z,0.00
2019-03-04T04:13:03.526Z,0.00
2019-03-04T04:14:03.554Z,0.00
2019-03-04T04:15:03.562Z,0.00
2019-03-04T04:16:03.578Z,0.00
2019-03-04T04:17:03.594Z,0.00
2019-03-04T04:18:03.619Z,0.00
2019-03-04T04:19:03.644Z,0.00
2019-03-04T04:20:03.664Z,0.00
2019-03-04T04:21:03.692Z,0.00
2019-03-04T04:22:03.934Z,0.00
2019-03-04T04:23:03.729Z,0.00
2019-03-04T04:24:04.248Z,0.00
2019-03-04T04:25:03.778Z,0.00
2019-03-04T04:26:03.803Z,0.00
2019-03-04T04:27:03.824Z,0.00
2019-03-04T04:28:03.844Z,0.00
2019-03-04T04:29:03.874Z,0.00
2019-03-04T04:30:03.894Z,0.00
2019-03-04T04:31:03.913Z,0.00
2019-03-04T04:32:03.935Z,0.00
2019-03-04T04:33:03.960Z,0.00
2019-03-04T04:34:04.112Z,0.00
2019-03-04T04:35:03.997Z,0.00
2019-03-04T04:36:04.022Z,0.00
2019-03-04T04:37:04.056Z,0.00
2019-03-04T04:38:04.064Z,0.00
2019-03-04T04:39:04.088Z,0.00
2019-03-04T04:40:04.104Z,0.00
2019-03-04T04:41:04.136Z,0.00
2019-03-04T04:42:04.167Z,0.00
2019-03-04T04:43:04.177Z,0.00
2019-03-04T04:44:04.218Z,0.00
2019-03-04T04:45:04.229Z,0.00
2019-03-04T04:46:04.254Z,0.00
2019-03-04T04:47:04.271Z,0.00
2019-03-04T04:48:04.290Z,0.00
2019-03-04T04:49:04.319Z,0.00
2019-03-04T04:50:04.343Z,0.00
2019-03-04T04:51:04.383Z,0.00
2019-03-04T04:52:04.650Z,0.00
2019-03-04T04:53:04.413Z,0.00
2019-03-04T04:54:04.433Z,0.00
2019-03-04T04:55:04.447Z,0.00
2019-03-04T04:56:04.474Z,0.00
2019-03-04T04:57:04.497Z,0.00
2019-03-04T04:58:04.518Z,0.00
2019-03-04T04:59:04.541Z,0.00
2019-03-04T05:00:04.560Z,0.00
2019-03-04T05:01:04.590Z,0.00
2019-03-04T05:02:04.619Z,0.00
2019-03-04T05:03:04.628Z,0.00
2019-03-04T05:04:04.652Z,0.00
2019-03-04T05:05:04.670Z,0.00
2019-03-04T05:06:04.697Z,0.00
2019-03-04T05:07:04.724Z,0.00
2019-03-04T05:08:04.738Z,0.00
2019-03-04T05:09:04.760Z,0.00
2019-03-04T05:10:04.780Z,0.00
2019-03-04T05:11:04.811Z,0.00
2019-03-04T05:12:04.833Z,0.00
2019-03-04T05:13:04.854Z,0.00
2019-03-04T05:14:04.873Z,0.00
2019-03-04T05:15:04.913Z,0.00
2019-03-04T05:16:04.923Z,0.00
2019-03-04T05:17:04.935Z,0.00
2019-03-04T05:18:04.967Z,0.00
2019-03-04T05:19:04.987Z,0.00
2019-03-04T05:20:05.017Z,0.00
2019-03-04T05:21:05.031Z,0.00
2019-03-04T05:22:05.051Z,0.00
2019-03-04T05:23:05.077Z,0.00
2019-03-04T05:24:05.126Z,0.00
2019-03-04T05:25:05.141Z,0.00
2019-03-04T05:26:05.140Z,0.00
2019-03-04T05:27:05.169Z,0.00
2019-03-04T05:28:05.192Z,0.00
2019-03-04T05:29:05.212Z,0.00
2019-03-04T05:30:05.230Z,0.00
2019-03-04T05:31:05.261Z,0.00
2019-03-04T05:32:05.280Z,0.00
2019-03-04T05:33:05.302Z,0.00
2019-03-04T05:34:05.330Z,0.00
2019-03-04T05:35:05.348Z,0.00
2019-03-04T05:36:05.376Z,0.00
2019-03-04T05:37:05.389Z,0.00
2019-03-04T05:38:05.414Z,0.00
2019-03-04T05:39:05.440Z,0.00
2019-03-04T05:40:05.460Z,0.00
2019-03-04T05:41:05.484Z,0.00
2019-03-04T05:42:05.505Z,0.00
2019-03-04T05:43:05.527Z,0.00
2019-03-04T05:44:05.550Z,0.00
2019-03-04T05:45:05.569Z,0.00
2019-03-04T05:46:05.593Z,0.00
2019-03-04T05:47:05.625Z,0.00
2019-03-04T05:48:07.622Z,0.00
2019-03-04T05:49:05.659Z,0.00
2019-03-04T05:50:05.689Z,0.00
2019-03-04T05:51:05.710Z,0.00
2019-03-04T05:52:05.733Z,0.00
2019-03-04T05:53:05.749Z,0.00
2019-03-04T05:54:05.777Z,0.00
2019-03-04T05:55:05.793Z,0.00
2019-03-04T05:56:05.827Z,0.00
2019-03-04T05:57:05.848Z,0.00
2019-03-04T05:58:05.867Z,0.00
2019-03-04T05:59:05.884Z,0.00
2019-03-04T06:00:05.906Z,0.00
2019-03-04T06:01:05.938Z,0.00
2019-03-04T06:02:05.957Z,0.00
2019-03-04T06:03:05.983Z,0.00
2019-03-04T06:04:05.996Z,0.00
2019-03-04T06:05:06.038Z,0.00
2019-03-04T06:06:06.043Z,0.00
2019-03-04T06:07:06.077Z,0.00
2019-03-04T06:08:06.092Z,0.00
2019-03-04T06:09:06.107Z,0.00
2019-03-04T06:10:06.137Z,0.00
2019-03-04T06:11:06.162Z,0.00
2019-03-04T06:12:06.181Z,0.00
2019-03-04T06:13:06.199Z,0.00
2019-03-04T06:14:06.237Z,0.00
2019-03-04T06:15:06.244Z,0.00
2019-03-04T06:16:06.270Z,0.00
2019-03-04T06:17:06.298Z,0.00
2019-03-04T06:18:06.318Z,0.00
2019-03-04T06:19:06.338Z,0.00
2019-03-04T06:20:06.359Z,0.00
2019-03-04T06:21:06.380Z,5.63
2019-03-04T06:22:06.404Z,5.63
2019-03-04T06:23:06.429Z,5.63
2019-03-04T06:24:06.456Z,5.63
2019-03-04T06:25:07.555Z,11.25
2019-03-04T06:26:06.494Z,11.25
2019-03-04T06:27:06.522Z,16.88
2019-03-04T06:28:06.554Z,16.88
2019-03-04T06:29:06.562Z,22.50
2019-03-04T06:30:06.586Z,22.50
2019-03-04T06:31:06.615Z,16.88
2019-03-04T06:32:06.628Z,16.88
2019-03-04T06:33:06.662Z,11.25
2019-03-04T06:34:06.682Z,11.25
2019-03-04T06:35:06.704Z,16.88
2019-03-04T06:36:06.732Z,16.88
2019-03-04T06:37:06.742Z,16.88
2019-03-04T06:38:06.770Z,16.88
2019-03-04T06:39:06.786Z,16.88
2019-03-04T06:40:06.813Z,16.88
2019-03-04T06:41:06.835Z,16.88
2019-03-04T06:42:06.859Z,16.88
2019-03-04T06:43:06.919Z,22.50
2019-03-04T06:44:06.908Z,28.13
2019-03-04T06:45:06.927Z,33.75
2019-03-04T06:46:06.950Z,39.38
2019-03-04T06:47:06.967Z,39.38
2019-03-04T06:48:06.991Z,39.38
2019-03-04T06:49:07.016Z,39.38
2019-03-04T06:50:07.042Z,39.38
2019-03-04T06:51:07.074Z,33.75
2019-03-04T06:52:07.083Z,33.75
2019-03-04T06:53:07.126Z,33.75
2019-03-04T06:54:07.134Z,33.75
2019-03-04T06:55:07.149Z,33.75
2019-03-04T06:56:07.177Z,33.75
2019-03-04T06:57:07.192Z,33.75
2019-03-04T06:58:07.224Z,33.75
2019-03-04T06:59:07.241Z,33.75
2019-03-04T07:00:07.264Z,33.75
2019-03-04T07:01:07.288Z,39.38
2019-03-04T07:02:07.309Z,50.63
2019-03-04T07:03:07.331Z,50.63
2019-03-04T07:04:07.390Z,50.63
2019-03-04T07:05:07.369Z,50.63
2019-03-04T07:06:07.403Z,39.38
2019-03-04T07:07:07.415Z,39.38
2019-03-04T07:08:07.447Z,33.75
2019-03-04T07:09:07.467Z,33.75
2019-03-04T07:10:07.492Z,39.38
2019-03-04T07:11:07.516Z,39.38
2019-03-04T07:12:07.534Z,39.38
2019-03-04T07:13:07.555Z,33.75
2019-03-04T07:14:07.591Z,39.38
2019-03-04T07:15:07.609Z,39.38
2019-03-04T07:16:07.634Z,39.38
2019-03-04T07:17:07.643Z,45.00
2019-03-04T07:18:07.669Z,45.00
2019-03-04T07:19:07.693Z,45.00
2019-03-04T07:20:07.719Z,45.00
2019-03-04T07:21:07.736Z,50.63
2019-03-04T07:22:07.802Z,50.63
2019-03-04T07:23:07.796Z,50.63
2019-03-04T07:24:07.799Z,50.63
2019-03-04T07:25:07.853Z,50.63
2019-03-04T07:26:07.878Z,50.63
2019-03-04T07:27:07.900Z,56.25
2019-03-04T07:28:07.909Z,56.25
2019-03-04T07:29:07.966Z,56.25
2019-03-04T07:30:07.944Z,61.88
2019-03-04T07:31:07.963Z,61.88
2019-03-04T07:32:07.980Z,61.88
2019-03-04T07:33:08.011Z,61.88
2019-03-04T07:34:08.028Z,61.88
2019-03-04T07:35:08.061Z,56.25
2019-03-04T07:36:08.234Z,56.25
2019-03-04T07:37:08.101Z,56.25
2019-03-04T07:38:08.121Z,61.88
2019-03-04T07:39:08.154Z,61.88
2019-03-04T07:40:08.184Z,61.88
2019-03-04T07:41:08.194Z,61.88
2019-03-04T07:42:08.211Z,61.88
2019-03-04T07:43:08.242Z,61.88
2019-03-04T07:44:08.267Z,56.25
2019-03-04T07:45:08.286Z,56.25
2019-03-04T07:46:08.307Z,56.25
2019-03-04T07:47:08.329Z,56.25
2019-03-04T07:48:08.355Z,50.63
2019-03-04T07:49:08.371Z,50.63
2019-03-04T07:50:08.397Z,50.63
2019-03-04T07:51:08.422Z,50.63
2019-03-04T07:52:08.441Z,50.63
2019-03-04T07:53:08.465Z,45.00
2019-03-04T07:54:08.492Z,45.00
2019-03-04T07:55:08.508Z,45.00
2019-03-04T07:56:08.534Z,45.00
2019-03-04T07:57:08.562Z,45.00
2019-03-04T07:58:08.580Z,45.00
2019-03-04T07:59:08.604Z,45.00
2019-03-04T08:00:08.647Z,45.00
2019-03-04T08:01:08.649Z,45.00
2019-03-04T08:02:08.669Z,39.38
2019-03-04T08:03:08.695Z,45.00
2019-03-04T08:04:08.714Z,39.38
2019-03-04T08:05:08.739Z,45.00
2019-03-04T08:06:08.761Z,45.00
2019-03-04T08:07:08.786Z,45.00
2019-03-04T08:08:08.809Z,39.38
2019-03-04T08:09:08.833Z,39.38
2019-03-04T08:10:08.864Z,39.38
2019-03-04T08:11:08.886Z,39.38
2019-03-04T08:12:08.902Z,39.38
2019-03-04T08:13:08.933Z,39.38
2019-03-04T08:14:08.946Z,39.38
2019-03-04T08:15:09.002Z,39.38
2019-03-04T08:16:08.994Z,39.38
2019-03-04T08:17:09.029Z,39.38
2019-03-04T08:18:09.039Z,45.00
2019-03-04T08:19:09.055Z,45.00
2019-03-04T08:20:09.097Z,50.63
2019-03-04T08:21:09.114Z,50.63
2019-03-04T08:22:09.137Z,61.88
2019-03-04T08:23:10.226Z,67.50
2019-03-04T08:24:09.172Z,67.50
2019-03-04T08:25:09.198Z,67.50
2019-03-04T08:26:09.234Z,73.13
2019-03-04T08:27:09.247Z,73.13
2019-03-04T08:28:09.263Z,78.75
2019-03-04T08:29:09.294Z,84.38
2019-03-04T08:30:09.317Z,84.38
2019-03-04T08:31:09.343Z,90.00
2019-03-04T08:32:09.357Z,90.00
2019-03-04T08:33:09.381Z,90.00
2019-03-04T08:34:09.460Z,78.75
2019-03-04T08:35:09.445Z,73.13
2019-03-04T08:36:09.465Z,78.75
2019-03-04T08:37:09.473Z,95.63
2019-03-04T08:38:09.498Z,140.63
2019-03-04T08:39:09.534Z,219.38
2019-03-04T08:40:09.546Z,258.75
2019-03-04T08:41:09.570Z,264.38
2019-03-04T08:42:09.591Z,264.38
2019-03-04T08:43:09.607Z,253.13
2019-03-04T08:44:09.639Z,247.50
2019-03-04T08:45:09.661Z,253.13
2019-03-04T08:46:09.684Z,253.13
2019-03-04T08:47:09.705Z,230.63
2019-03-04T08:48:09.751Z,202.50
2019-03-04T08:49:09.759Z,202.50
2019-03-04T08:50:09.773Z,196.88
2019-03-04T08:51:09.800Z,202.50
2019-03-04T08:52:09.833Z,196.88
2019-03-04T08:53:09.862Z,191.25
2019-03-04T08:54:09.873Z,174.38
2019-03-04T08:55:09.890Z,168.75
2019-03-04T08:56:11.643Z,157.50
2019-03-04T08:57:09.949Z,168.75
2019-03-04T08:58:09.976Z,196.88
2019-03-04T08:59:10.036Z,191.25
2019-03-04T09:00:10.009Z,196.88
2019-03-04T09:01:10.029Z,202.50
2019-03-04T09:02:10.053Z,196.88
2019-03-04T09:03:10.085Z,202.50
2019-03-04T09:04:10.115Z,196.88
2019-03-04T09:05:10.125Z,180.00
2019-03-04T09:06:10.155Z,180.00
2019-03-04T09:07:10.183Z,185.63
2019-03-04T09:08:10.206Z,185.63
2019-03-04T09:09:10.225Z,174.38
2019-03-04T09:10:10.254Z,140.63
2019-03-04T09:11:10.279Z,123.75
2019-03-04T09:12:10.288Z,101.25
2019-03-04T09:13:10.320Z,101.25
2019-03-04T09:14:10.337Z,101.25
2019-03-04T09:15:10.365Z,112.50
2019-03-04T09:16:10.392Z,112.50
2019-03-04T09:17:10.685Z,123.75
2019-03-04T09:18:10.431Z,129.38
2019-03-04T09:19:10.460Z,146.25
2019-03-04T09:20:10.475Z,151.88
2019-03-04T09:21:10.498Z,151.88
2019-03-04T09:22:10.527Z,157.50
2019-03-04T09:23:10.547Z,163.13
2019-03-04T09:24:10.614Z,151.88
2019-03-04T09:25:10.599Z,129.38
2019-03-04T09:26:10.635Z,118.13
2019-03-04T09:27:10.646Z,112.50
2019-03-04T09:28:10.669Z,106.88
2019-03-04T09:29:10.689Z,106.88
2019-03-04T09:30:10.715Z,118.13
2019-03-04T09:31:10.743Z,118.13
2019-03-04T09:32:10.764Z,129.38
2019-03-04T09:33:10.778Z,135.00
2019-03-04T09:34:10.808Z,123.75
2019-03-04T09:35:10.828Z,129.38
2019-03-04T09:36:10.856Z,140.63
2019-03-04T09:37:10.874Z,146.25
2019-03-04T09:38:10.910Z,123.75
2019-03-04T09:39:10.922Z,106.88
2019-03-04T09:40:10.956Z,106.88
2019-03-04T09:41:10.974Z,101.25
2019-03-04T09:42:11.007Z,101.25
2019-03-04T09:43:11.028Z,84.38
2019-03-04T09:44:11.042Z,78.75
2019-03-04T09:45:11.069Z,67.50
2019-03-04T09:46:11.093Z,67.50
2019-03-04T09:47:11.144Z,56.25
2019-03-04T09:48:12.074Z,45.00
2019-03-04T09:49:11.162Z,45.00
2019-03-04T09:50:11.182Z,50.63
2019-03-04T09:51:11.208Z,50.63
2019-03-04T09:52:11.236Z,56.25
2019-03-04T09:53:11.258Z,61.88
2019-03-04T09:54:11.277Z,56.25
2019-03-04T09:55:11.304Z,50.63
2019-03-04T09:56:11.328Z,50.63
2019-03-04T09:57:11.354Z,50.63
2019-03-04T09:58:11.375Z,50.63
2019-03-04T09:59:11.407Z,50.63
2019-03-04T10:00:11.418Z,50.63
2019-03-04T10:01:11.443Z,56.25
2019-03-04T10:02:11.489Z,56.25
2019-03-04T10:03:11.485Z,67.50
2019-03-04T10:04:11.512Z,67.50
2019-03-04T10:05:13.392Z,73.13
2019-03-04T10:06:11.557Z,78.75
2019-03-04T10:07:11.585Z,78.75
2019-03-04T10:08:11.608Z,84.38
2019-03-04T10:09:11.634Z,95.63
2019-03-04T10:10:11.654Z,112.50
2019-03-04T10:11:11.678Z,118.13
2019-03-04T10:12:11.701Z,129.38
2019-03-04T10:13:11.725Z,140.63
2019-03-04T10:14:11.747Z,135.00
2019-03-04T10:15:11.771Z,129.38
2019-03-04T10:16:18.490Z,140.63
2019-03-04T10:17:11.822Z,140.63
2019-03-04T10:18:11.850Z,135.00
2019-03-04T10:19:11.868Z,112.50
2019-03-04T10:20:11.889Z,112.50
2019-03-04T10:21:11.916Z,106.88
2019-03-04T10:22:11.943Z,95.63
2019-03-04T10:23:11.967Z,95.63
2019-03-04T10:24:11.985Z,95.63
2019-03-04T10:25:12.013Z,101.25
2019-03-04T10:26:21.909Z,106.88
2019-03-04T10:27:12.059Z,123.75
2019-03-04T10:28:12.087Z,140.63
2019-03-04T10:29:12.100Z,157.50
2019-03-04T10:30:12.141Z,180.00
2019-03-04T10:31:12.150Z,213.75
2019-03-04T10:32:12.180Z,230.63
2019-03-04T10:33:12.204Z,286.88
2019-03-04T10:34:12.226Z,1338.75
2019-03-04T10:35:12.246Z,1389.38
2019-03-04T10:36:12.273Z,1963.13
2019-03-04T10:37:12.301Z,2115.00
2019-03-04T10:38:22.167Z,2143.13
2019-03-04T10:39:12.344Z,2261.25
2019-03-04T10:40:12.458Z,1800.00
2019-03-04T10:41:12.417Z,1985.63
2019-03-04T10:42:12.412Z,1738.13
2019-03-04T10:43:12.443Z,399.38
2019-03-04T10:44:12.477Z,354.38
2019-03-04T10:45:12.498Z,2441.25
2019-03-04T10:46:12.527Z,506.25
2019-03-04T10:47:12.543Z,1080.00
2019-03-04T10:48:12.571Z,1687.50
2019-03-04T10:49:12.611Z,495.00
2019-03-04T10:50:12.628Z,444.38
2019-03-04T10:51:12.652Z,354.38
2019-03-04T10:52:12.679Z,123.75
2019-03-04T10:53:12.704Z,106.88
2019-03-04T10:54:12.736Z,118.13
2019-03-04T10:55:12.765Z,101.25
2019-03-04T10:56:12.784Z,73.13
2019-03-04T10:57:12.806Z,84.38
2019-03-04T10:58:12.848Z,73.13
2019-03-04T10:59:12.865Z,84.38
2019-03-04T11:00:12.896Z,101.25
2019-03-04T11:01:12.910Z,73.13
2019-03-04T11:02:12.949Z,78.75
2019-03-04T11:03:12.971Z,95.63
2019-03-04T11:04:12.989Z,135.00
2019-03-04T11:05:13.025Z,118.13
2019-03-04T11:06:13.046Z,95.63
2019-03-04T11:07:13.064Z,112.50
2019-03-04T11:08:13.094Z,90.00
2019-03-04T11:09:13.121Z,151.88
2019-03-04T11:10:13.155Z,140.63
2019-03-04T11:11:13.174Z,140.63
2019-03-04T11:12:14.129Z,118.13
2019-03-04T11:13:13.215Z,95.63
2019-03-04T11:14:13.247Z,135.00
2019-03-04T11:15:13.285Z,73.13
2019-03-04T11:16:13.299Z,67.50
2019-03-04T11:17:13.329Z,61.88
2019-03-04T11:18:13.352Z,50.63
2019-03-04T11:19:13.376Z,95.63
2019-03-04T11:20:13.398Z,112.50
2019-03-04T11:21:13.419Z,140.63
2019-03-04T11:22:13.453Z,106.88
2019-03-04T11:23:15.075Z,129.38
2019-03-04T11:24:13.497Z,196.88
2019-03-04T11:25:13.525Z,275.63
2019-03-04T11:26:13.554Z,180.00
2019-03-04T11:27:13.571Z,118.13
2019-03-04T11:28:13.604Z,56.25
2019-03-04T11:29:13.623Z,45.00
2019-03-04T11:30:13.639Z,33.75
2019-03-04T11:31:13.676Z,22.50
2019-03-04T11:32:13.695Z,16.88
2019-03-04T11:33:13.730Z,50.63
2019-03-04T11:34:13.751Z,106.88
2019-03-04T11:35:13.772Z,78.75
2019-03-04T11:36:13.793Z,84.38
2019-03-04T11:37:13.816Z,67.50
2019-03-04T11:38:13.852Z,78.75
2019-03-04T11:39:13.872Z,73.13
2019-03-04T11:40:13.904Z,56.25
2019-03-04T11:41:13.919Z,45.00
2019-03-04T11:42:13.951Z,50.63
2019-03-04T11:43:13.959Z,45.00
2019-03-04T11:44:13.991Z,45.00
2019-03-04T11:45:14.015Z,73.13
2019-03-04T11:46:14.063Z,90.00
2019-03-04T11:47:14.063Z,45.00
2019-03-04T11:48:14.087Z,45.00
2019-03-04T11:49:14.115Z,50.63
2019-03-04T11:50:14.143Z,90.00
2019-03-04T11:51:14.162Z,101.25
2019-03-04T11:52:14.184Z,67.50
2019-03-04T11:53:14.211Z,56.25
2019-03-04T11:54:14.233Z,28.13
2019-03-04T11:55:14.253Z,22.50
2019-03-04T11:56:14.279Z,22.50
2019-03-04T11:57:14.336Z,22.50
2019-03-04T11:58:14.339Z,22.50
2019-03-04T11:59:14.350Z,22.50
2019-03-04T12:00:14.372Z,39.38
2019-03-04T12:01:14.393Z,39.38
2019-03-04T12:02:14.420Z,33.75
2019-03-04T12:03:14.502Z,28.13
2019-03-04T12:04:14.456Z,33.75
2019-03-04T12:05:14.497Z,39.38
2019-03-04T12:06:14.512Z,39.38
2019-03-04T12:07:14.545Z,50.63
2019-03-04T12:08:14.557Z,73.13
2019-03-04T12:09:14.581Z,101.25
2019-03-04T12:10:14.604Z,106.88
2019-03-04T12:11:14.643Z,118.13
2019-03-04T12:12:14.654Z,129.38
2019-03-04T12:13:14.684Z,123.75
2019-03-04T12:14:14.700Z,101.25
2019-03-04T12:15:14.725Z,101.25
2019-03-04T12:16:14.741Z,118.13
2019-03-04T12:17:14.765Z,112.50
2019-03-04T12:18:14.787Z,118.13
2019-03-04T12:19:14.811Z,112.50
2019-03-04T12:20:14.839Z,112.50
2019-03-04T12:21:14.859Z,112.50
2019-03-04T12:22:14.879Z,140.63
2019-03-04T12:23:14.905Z,151.88
2019-03-04T12:24:14.925Z,146.25
2019-03-04T12:25:14.951Z,191.25
2019-03-04T12:26:14.969Z,315.00
2019-03-04T12:27:14.999Z,326.25
2019-03-04T12:28:15.020Z,241.88
2019-03-04T12:29:15.048Z,326.25
2019-03-04T12:30:15.078Z,320.63
2019-03-04T12:31:15.091Z,331.88
2019-03-04T12:32:15.109Z,241.88
2019-03-04T12:33:15.140Z,174.38
2019-03-04T12:34:24.266Z,174.38
2019-03-04T12:35:15.183Z,219.38
2019-03-04T12:36:15.206Z,213.75
2019-03-04T12:37:15.227Z,163.13
2019-03-04T12:38:15.251Z,135.00
2019-03-04T12:39:15.295Z,129.38
2019-03-04T12:40:15.297Z,157.50
2019-03-04T12:41:15.317Z,225.00
2019-03-04T12:42:15.343Z,281.25
2019-03-04T12:43:15.365Z,309.38
2019-03-04T12:44:15.389Z,264.38
2019-03-04T12:45:15.429Z,286.88
2019-03-04T12:46:15.435Z,343.13
2019-03-04T12:47:16.402Z,360.00
2019-03-04T12:48:15.487Z,371.25
2019-03-04T12:49:15.504Z,360.00
2019-03-04T12:50:15.537Z,354.38
2019-03-04T12:51:22.685Z,337.50
2019-03-04T12:52:15.584Z,331.88
2019-03-04T12:53:15.603Z,343.13
2019-03-04T12:54:15.629Z,354.38
2019-03-04T12:55:15.642Z,337.50
2019-03-04T12:56:15.679Z,348.75
2019-03-04T12:57:15.693Z,343.13
2019-03-04T12:58:15.718Z,337.50
2019-03-04T12:59:15.740Z,309.38